Time;durP1;ratioP1;P1;durP2;ratioP2;P2;SDS_P1;SDS_P2;PMS_P1;PMS_P2;Temp;Humidity;BMP_temperature;BMP_pressure;BME280_temperature;BME280_humidity;BME280_pressure;Samples;Min_cycle;Max_cycle;Signal;HPM_P1;HPM_P2
2021/03/21 00:01:28;;;;;;;;;81.00;59.00;;;;;;;;3724573;38;21037;-66
2021/03/21 00:03:54;;;;;;;;;80.00;56.50;;;;;;;;3724851;37;21040;-64
2021/03/21 00:06:24;;;;;;;;;77.25;60.50;;;;;;;;3725111;37;17887;-65
2021/03/21 00:08:50;;;;;;;;;72.25;58.75;;;;;;;;3724973;37;17906;-65
2021/03/21 00:11:17;;;;;;;;;73.75;57.00;;;;;;;;3724934;37;17918;-65
2021/03/21 00:13:43;;;;;;;;;81.00;60.25;;;;;;;;3724605;38;21038;-65
2021/03/21 00:16:10;;;;;;;;;75.25;58.00;;;;;;;;3725077;38;21032;-65
2021/03/21 00:18:37;;;;;;;;;82.50;64.50;;;;;;;;3725248;38;17894;-65
2021/03/21 00:21:05;;;;;;;;;75.75;60.25;;;;;;;;3724823;38;17897;-64
2021/03/21 00:23:31;;;;;;;;;78.00;61.25;;;;;;;;3724517;37;21276;-67
2021/03/21 00:25:58;;;;;;;;;72.00;54.25;;;;;;;;3724882;38;17897;-65
2021/03/21 00:28:27;;;;;;;;;82.50;62.00;;;;;;;;3724784;38;21035;-64
2021/03/21 00:30:53;;;;;;;;;75.75;57.75;;;;;;;;3724828;38;17884;-64
2021/03/21 00:33:23;;;;;;;;;82.25;60.00;;;;;;;;3724822;38;17860;-65
2021/03/21 00:35:51;;;;;;;;;77.50;59.00;;;;;;;;3724704;38;17872;-64
2021/03/21 00:38:19;;;;;;;;;68.75;53.75;;;;;;;;3724766;37;17865;-64
2021/03/21 00:40:45;;;;;;;;;67.00;53.75;;;;;;;;3724087;37;21015;-65
2021/03/21 00:43:12;;;;;;;;;72.00;56.75;;;;;;;;3724380;37;21260;-64
2021/03/21 00:45:38;;;;;;;;;73.75;56.25;;;;;;;;3724428;37;21000;-64
2021/03/21 00:48:09;;;;;;;;;73.75;52.00;;;;;;;;3724789;37;20973;-64
2021/03/21 00:50:35;;;;;;;;;74.00;51.50;;;;;;;;3724269;38;20979;-65
2021/03/21 00:53:01;;;;;;;;;72.75;57.75;;;;;;;;3724787;38;17822;-64
2021/03/21 00:55:27;;;;;;;;;70.25;54.00;;;;;;;;3724815;38;17858;-65
2021/03/21 00:57:53;;;;;;;;;59.75;45.75;;;;;;;;3724764;37;17822;-65
2021/03/21 01:00:23;;;;;;;;;66.50;53.00;;;;;;;;3724462;37;17841;-64
2021/03/21 01:02:49;;;;;;;;;75.25;59.75;;;;;;;;3723938;38;20966;-64
2021/03/21 01:05:21;;;;;;;;;65.25;47.75;;;;;;;;3724460;37;20956;-65
2021/03/21 01:07:49;;;;;;;;;65.25;48.25;;;;;;;;3724836;37;17820;-65
2021/03/21 01:10:16;;;;;;;;;73.50;55.00;;;;;;;;3724173;38;20948;-63
2021/03/21 01:12:42;;;;;;;;;75.75;55.50;;;;;;;;3724427;38;20945;-65
2021/03/21 01:15:08;;;;;;;;;73.75;54.25;;;;;;;;3724754;38;20946;-65
2021/03/21 01:17:35;;;;;;;;;66.75;53.50;;;;;;;;3725535;37;17808;-65
2021/03/21 01:20:02;;;;;;;;;66.50;50.25;;;;;;;;3725475;37;21278;-64
2021/03/21 01:22:28;;;;;;;;;62.75;49.25;;;;;;;;3724969;38;20951;-65
2021/03/21 01:24:53;;;;;;;;;60.50;49.00;;;;;;;;3725320;37;20938;-65
2021/03/21 01:27:19;;;;;;;;;65.50;51.25;;;;;;;;3725583;38;17800;-64
2021/03/21 01:29:46;;;;;;;;;58.50;47.50;;;;;;;;3725559;38;17797;-65
2021/03/21 01:32:20;;;;;;;;;63.00;51.00;;;;;;;;3724656;38;17788;-67
2021/03/21 01:34:46;;;;;;;;;69.25;51.25;;;;;;;;3724515;38;20912;-66
2021/03/21 01:37:12;;;;;;;;;62.50;50.50;;;;;;;;3724755;37;20928;-65
2021/03/21 01:39:37;;;;;;;;;67.00;52.00;;;;;;;;3724947;38;20932;-65
2021/03/21 01:42:11;;;;;;;;;60.75;48.75;;;;;;;;3724934;38;17777;-63
2021/03/21 01:44:37;;;;;;;;;59.00;47.50;;;;;;;;3724520;38;17904;-66
2021/03/21 01:47:31;;;;;;;;;68.00;54.75;;;;;;;;3724791;38;20893;-66
2021/03/21 01:49:58;;;;;;;;;68.75;52.00;;;;;;;;3724783;37;20888;-66
2021/03/21 01:52:34;;;;;;;;;74.25;55.50;;;;;;;;3724850;37;20890;-64
2021/03/21 01:55:00;;;;;;;;;69.25;52.25;;;;;;;;3724274;38;20894;-65
2021/03/21 01:57:26;;;;;;;;;65.75;50.00;;;;;;;;3724742;38;20874;-64
2021/03/21 01:59:52;;;;;;;;;62.50;47.50;;;;;;;;3724704;37;20909;-64
2021/03/21 02:02:18;;;;;;;;;58.75;46.00;;;;;;;;3724893;37;20881;-64
2021/03/21 02:04:44;;;;;;;;;52.75;45.75;;;;;;;;3724813;37;20883;-64
2021/03/21 02:07:28;;;;;;;;;67.50;48.25;;;;;;;;3724791;38;17740;-65
2021/03/21 02:10:12;;;;;;;;;65.00;47.50;;;;;;;;3724954;38;17789;-65
2021/03/21 02:12:54;;;;;;;;;62.00;49.25;;;;;;;;3726106;37;20926;-64
2021/03/21 02:15:43;;;;;;;;;61.50;49.00;;;;;;;;3725593;38;20860;-64
2021/03/21 02:18:40;;;;;;;;;66.00;48.75;;;;;;;;3726809;37;20875;-65
2021/03/21 02:21:32;;;;;;;;;67.50;51.50;;;;;;;;3725060;38;20898;-63
2021/03/21 02:24:07;;;;;;;;;70.50;51.50;;;;;;;;3725002;38;20889;-65
2021/03/21 02:27:05;;;;;;;;;64.25;49.00;;;;;;;;3724860;37;20848;-65
2021/03/21 02:29:56;;;;;;;;;61.75;47.50;;;;;;;;3724820;38;20867;-63
2021/03/21 02:32:27;;;;;;;;;65.50;51.50;;;;;;;;3724858;37;20961;-63
2021/03/21 02:35:12;;;;;;;;;53.50;43.50;;;;;;;;3724837;37;20842;-65
2021/03/21 02:38:04;;;;;;;;;60.75;50.75;;;;;;;;3724968;38;20909;-64
2021/03/21 02:40:56;;;;;;;;;55.00;47.00;;;;;;;;3724478;37;20838;-65
2021/03/21 02:43:40;;;;;;;;;69.25;53.00;;;;;;;;3734891;37;20859;-63
2021/03/21 02:46:14;;;;;;;;;60.50;47.25;;;;;;;;3741399;37;20839;-64
2021/03/21 02:48:44;;;;;;;;;61.25;48.00;;;;;;;;3727760;38;20833;-64
2021/03/21 02:51:16;;;;;;;;;42.75;33.00;;;;;;;;3733594;37;20829;-63
2021/03/21 02:53:44;;;;;;;;;58.75;47.00;;;;;;;;3741234;38;20815;-64
2021/03/21 02:56:15;;;;;;;;;68.25;56.25;;;;;;;;3739810;38;20823;-64
2021/03/21 02:58:44;;;;;;;;;49.50;44.00;;;;;;;;3724592;37;20807;-64
2021/03/21 03:01:30;;;;;;;;;64.50;51.50;;;;;;;;3724945;37;20790;-65
2021/03/21 03:04:03;;;;;;;;;65.25;48.75;;;;;;;;3724750;37;20881;-64
2021/03/21 03:06:49;;;;;;;;;74.00;52.00;;;;;;;;3724411;37;20798;-64
2021/03/21 03:09:26;;;;;;;;;64.50;50.50;;;;;;;;3724887;37;20838;-64
2021/03/21 03:11:56;;;;;;;;;70.75;55.50;;;;;;;;3724382;37;20813;-63
2021/03/21 03:14:25;;;;;;;;;72.25;53.50;;;;;;;;3724932;37;20805;-63
2021/03/21 03:16:55;;;;;;;;;68.50;52.50;;;;;;;;3724844;37;20812;-65
2021/03/21 03:19:41;;;;;;;;;60.25;44.25;;;;;;;;3724599;38;20817;-64
2021/03/21 03:22:27;;;;;;;;;70.50;53.75;;;;;;;;3724374;37;20779;-63
2021/03/21 03:25:08;;;;;;;;;61.00;46.00;;;;;;;;3724908;37;21788;-64
2021/03/21 03:28:08;;;;;;;;;65.75;45.50;;;;;;;;3724936;37;21772;-63
2021/03/21 03:30:50;;;;;;;;;62.75;47.25;;;;;;;;3724619;37;21782;-66
2021/03/21 03:33:15;;;;;;;;;70.75;49.25;;;;;;;;3724728;38;20773;-66
2021/03/21 03:35:42;;;;;;;;;76.25;52.00;;;;;;;;3724980;37;20777;-67
2021/03/21 03:38:11;;;;;;;;;57.00;45.00;;;;;;;;3724665;37;18621;-68
2021/03/21 03:40:41;;;;;;;;;70.25;51.75;;;;;;;;3724454;38;21832;-66
2021/03/21 03:43:25;;;;;;;;;55.25;44.25;;;;;;;;3724847;38;21770;-64
2021/03/21 03:46:28;;;;;;;;;68.50;50.50;;;;;;;;3724680;38;21815;-65
2021/03/21 03:49:01;;;;;;;;;76.50;56.75;;;;;;;;3725151;37;21761;-67
2021/03/21 03:51:42;;;;;;;;;69.75;54.75;;;;;;;;3724970;37;21747;-67
2021/03/21 03:54:12;;;;;;;;;64.00;44.50;;;;;;;;3724748;37;21733;-67
2021/03/21 03:56:55;;;;;;;;;73.75;54.25;;;;;;;;3724970;37;21752;-66
2021/03/21 03:59:49;;;;;;;;;65.75;51.50;;;;;;;;3724725;37;21724;-65
2021/03/21 04:02:21;;;;;;;;;68.75;49.00;;;;;;;;3724948;37;21751;-66
2021/03/21 04:05:10;;;;;;;;;60.25;50.50;;;;;;;;3724281;38;21741;-66
2021/03/21 04:07:42;;;;;;;;;61.00;50.00;;;;;;;;3725059;37;21763;-66
2021/03/21 04:10:26;;;;;;;;;61.75;47.75;;;;;;;;3725129;38;21746;-67
2021/03/21 04:13:14;;;;;;;;;66.00;50.00;;;;;;;;3725689;38;21771;-63
2021/03/21 04:15:49;;;;;;;;;61.25;46.75;;;;;;;;3725024;38;21695;-68
2021/03/21 04:18:35;;;;;;;;;48.00;39.25;;;;;;;;3724998;38;21696;-67
2021/03/21 04:21:19;;;;;;;;;49.75;43.25;;;;;;;;3724665;37;21726;-65
2021/03/21 04:23:50;;;;;;;;;61.50;48.75;;;;;;;;3724966;38;21593;-64
2021/03/21 04:26:25;;;;;;;;;48.25;40.75;;;;;;;;3724520;37;21713;-68
2021/03/21 04:28:55;;;;;;;;;57.00;42.75;;;;;;;;3724670;37;21709;-67
2021/03/21 04:31:20;;;;;;;;;65.00;48.25;;;;;;;;3724913;37;21717;-68
2021/03/21 04:33:55;;;;;;;;;62.00;47.25;;;;;;;;3724958;38;21699;-66
2021/03/21 04:36:23;;;;;;;;;56.75;45.75;;;;;;;;3725089;38;18535;-65
2021/03/21 04:38:55;;;;;;;;;61.50;46.00;;;;;;;;3724959;37;21701;-65
2021/03/21 04:41:31;;;;;;;;;55.50;44.50;;;;;;;;3724346;37;21680;-65
2021/03/21 04:44:23;;;;;;;;;58.75;47.75;;;;;;;;3725507;38;21698;-66
2021/03/21 04:47:06;;;;;;;;;65.75;47.00;;;;;;;;3725464;38;21689;-66
2021/03/21 04:49:34;;;;;;;;;72.00;52.50;;;;;;;;3727665;37;21700;-70
2021/03/21 04:52:17;;;;;;;;;65.00;46.50;;;;;;;;3729766;38;22174;-65
2021/03/21 04:54:46;;;;;;;;;62.25;49.00;;;;;;;;3730133;38;21677;-67
2021/03/21 04:57:30;;;;;;;;;62.50;50.25;;;;;;;;3729959;37;21665;-64
2021/03/21 04:59:59;;;;;;;;;68.50;48.75;;;;;;;;3725948;37;21600;-64
2021/03/21 05:02:33;;;;;;;;;70.00;53.50;;;;;;;;3724723;38;21838;-64
2021/03/21 05:05:12;;;;;;;;;64.50;44.25;;;;;;;;3725238;37;21683;-65
2021/03/21 05:07:50;;;;;;;;;75.75;58.00;;;;;;;;3725057;38;21637;-66
2021/03/21 05:10:22;;;;;;;;;65.00;50.75;;;;;;;;3724401;37;18660;-64
2021/03/21 05:13:13;;;;;;;;;69.75;54.75;;;;;;;;3724847;38;21633;-65
2021/03/21 05:15:46;;;;;;;;;67.50;51.25;;;;;;;;3725031;38;21664;-66
2021/03/21 05:18:30;;;;;;;;;72.25;52.00;;;;;;;;3724993;38;21616;-69
2021/03/21 05:21:05;;;;;;;;;62.50;53.25;;;;;;;;3725207;38;21655;-67
2021/03/21 05:23:37;;;;;;;;;78.75;57.25;;;;;;;;3725138;37;21625;-67
2021/03/21 05:26:23;;;;;;;;;78.75;57.50;;;;;;;;3724933;38;21624;-65
2021/03/21 05:29:09;;;;;;;;;79.75;56.25;;;;;;;;3725068;37;21624;-64
2021/03/21 05:31:35;;;;;;;;;75.75;55.75;;;;;;;;3724939;38;21633;-70
2021/03/21 05:34:01;;;;;;;;;78.50;59.75;;;;;;;;3724821;38;21631;-65
2021/03/21 05:36:40;;;;;;;;;66.25;48.50;;;;;;;;3724968;37;18475;-67
2021/03/21 05:39:19;;;;;;;;;61.25;46.25;;;;;;;;3724916;37;21614;-66
2021/03/21 05:42:03;;;;;;;;;56.75;44.25;;;;;;;;3724884;38;21615;-68
2021/03/21 05:44:51;;;;;;;;;56.25;42.00;;;;;;;;3724689;37;21581;-66
2021/03/21 05:47:55;;;;;;;;;64.25;47.50;;;;;;;;3724812;38;21640;-66
2021/03/21 05:50:58;;;;;;;;;61.50;45.75;;;;;;;;3724890;37;21611;-63
2021/03/21 05:53:45;;;;;;;;;59.50;42.75;;;;;;;;3724546;37;21590;-65
2021/03/21 05:56:33;;;;;;;;;48.75;42.50;;;;;;;;3724847;38;21591;-65
2021/03/21 05:59:17;;;;;;;;;51.00;44.25;;;;;;;;3724886;38;21612;-65
2021/03/21 06:02:06;;;;;;;;;50.75;43.25;;;;;;;;3724487;37;21627;-64
2021/03/21 06:04:50;;;;;;;;;51.00;43.75;;;;;;;;3724821;37;21608;-66
2021/03/21 06:07:40;;;;;;;;;41.75;39.00;;;;;;;;3724817;37;21589;-67
2021/03/21 06:10:44;;;;;;;;;62.50;44.50;;;;;;;;3724387;38;21564;-66
2021/03/21 06:13:35;;;;;;;;;;;;;;;;;;;;;
2021/03/21 06:16:11;;;;;;;;;48.75;42.75;;;;;;;;3724856;38;21559;-67
2021/03/21 06:18:56;;;;;;;;;43.50;40.00;;;;;;;;3724459;37;21616;-65
2021/03/21 06:21:57;;;;;;;;;52.25;42.00;;;;;;;;3724846;38;21555;-66
2021/03/21 06:24:46;;;;;;;;;44.25;40.50;;;;;;;;3724751;37;21555;-66
2021/03/21 06:27:40;;;;;;;;;49.75;43.25;;;;;;;;3724727;37;21561;-67
2021/03/21 06:30:23;;;;;;;;;52.00;38.25;;;;;;;;3724814;37;21549;-64
2021/03/21 06:33:23;;;;;;;;;31.50;27.75;;;;;;;;3724905;38;21554;-69
2021/03/21 06:36:10;;;;;;;;;42.50;37.25;;;;;;;;3725948;37;21532;-65
2021/03/21 06:38:55;;;;;;;;;55.75;47.50;;;;;;;;3728144;37;21519;-66
2021/03/21 06:41:41;;;;;;;;;46.75;39.75;;;;;;;;3729123;38;21507;-65
2021/03/21 06:44:27;;;;;;;;;51.50;40.25;;;;;;;;3735146;37;21593;-66
2021/03/21 06:47:24;;;;;;;;;56.25;45.75;;;;;;;;3741899;37;21551;-66
2021/03/21 06:49:58;;;;;;;;;51.25;42.00;;;;;;;;3734974;38;21515;-69
2021/03/21 06:52:40;;;;;;;;;59.50;48.00;;;;;;;;3725087;37;21517;-66
2021/03/21 06:55:24;;;;;;;;;59.75;48.50;;;;;;;;3725498;38;21496;-65
2021/03/21 06:58:14;;;;;;;;;61.00;46.50;;;;;;;;3724839;38;21516;-66
2021/03/21 07:00:53;;;;;;;;;54.25;43.75;;;;;;;;3724506;38;21512;-65
2021/03/21 07:03:38;;;;;;;;;58.00;46.00;;;;;;;;3724841;38;21513;-66
2021/03/21 07:06:30;;;;;;;;;44.25;40.00;;;;;;;;3724716;38;21483;-67
2021/03/21 07:09:18;;;;;;;;;51.25;43.75;;;;;;;;3724691;38;21489;-65
2021/03/21 07:12:02;;;;;;;;;54.75;40.75;;;;;;;;3724972;38;21480;-67
2021/03/21 07:14:45;;;;;;;;;56.50;43.00;;;;;;;;3724744;38;21488;-66
2021/03/21 07:17:40;;;;;;;;;52.50;42.25;;;;;;;;3724760;38;21522;-68
2021/03/21 07:20:24;;;;;;;;;50.25;43.00;;;;;;;;3725101;37;21489;-66
2021/03/21 07:23:18;;;;;;;;;41.25;38.75;;;;;;;;3724762;37;21503;-67
2021/03/21 07:26:02;;;;;;;;;45.75;39.00;;;;;;;;3725530;38;21488;-68
2021/03/21 07:28:43;;;;;;;;;48.25;40.50;;;;;;;;3725793;37;21500;-69
2021/03/21 07:31:21;;;;;;;;;54.50;41.25;;;;;;;;3725641;37;21464;-66
2021/03/21 07:34:15;;;;;;;;;51.25;42.75;;;;;;;;3726165;37;21492;-67
2021/03/21 07:36:49;;;;;;;;;51.25;40.50;;;;;;;;3725580;38;21445;-64
2021/03/21 07:39:33;;;;;;;;;52.50;42.75;;;;;;;;3725036;37;21470;-69
2021/03/21 07:42:22;;;;;;;;;47.50;36.75;;;;;;;;3725139;38;21470;-68
2021/03/21 07:45:06;;;;;;;;;47.25;39.75;;;;;;;;3724776;38;21453;-65
2021/03/21 07:47:47;;;;;;;;;35.50;29.75;;;;;;;;3724536;37;21532;-67
2021/03/21 07:50:23;;;;;;;;;49.00;37.00;;;;;;;;3724876;37;21429;-67
2021/03/21 07:52:58;;;;;;;;;50.75;45.00;;;;;;;;3725137;37;21440;-68
2021/03/21 07:55:47;;;;;;;;;42.50;36.75;;;;;;;;3724594;37;21450;-68
2021/03/21 07:58:42;;;;;;;;;40.25;31.00;;;;;;;;3724812;38;21423;-65
2021/03/21 08:01:08;;;;;;;;;39.50;35.25;;;;;;;;3724963;38;21422;-66
2021/03/21 08:03:38;;;;;;;;;42.75;36.75;;;;;;;;3724749;37;21425;-66
2021/03/21 08:06:12;;;;;;;;;49.75;39.00;;;;;;;;3724853;38;21419;-66
2021/03/21 08:08:42;;;;;;;;;48.75;38.25;;;;;;;;3724435;37;21435;-66
2021/03/21 08:11:13;;;;;;;;;45.25;40.75;;;;;;;;3724815;37;21427;-66
2021/03/21 08:13:41;;;;;;;;;50.75;41.25;;;;;;;;3724419;38;21501;-66
2021/03/21 08:16:14;;;;;;;;;54.50;42.75;;;;;;;;3724749;38;21407;-66
2021/03/21 08:18:40;;;;;;;;;49.75;39.25;;;;;;;;3724976;38;21402;-66
2021/03/21 08:21:19;;;;;;;;;45.25;40.25;;;;;;;;3724452;38;21411;-66
2021/03/21 08:23:47;;;;;;;;;42.00;33.50;;;;;;;;3724591;38;21408;-66
2021/03/21 08:26:13;;;;;;;;;43.25;37.00;;;;;;;;3725039;37;21384;-66
2021/03/21 08:29:02;;;;;;;;;47.25;40.00;;;;;;;;3725082;37;21404;-66
2021/03/21 08:31:30;;;;;;;;;40.25;35.00;;;;;;;;3725931;37;21391;-66
2021/03/21 08:34:16;;;;;;;;;49.00;39.50;;;;;;;;3725464;37;21273;-66
2021/03/21 08:36:42;;;;;;;;;37.50;33.75;;;;;;;;3725829;38;21371;-65
2021/03/21 08:39:29;;;;;;;;;34.75;32.50;;;;;;;;3725294;38;21301;-66
2021/03/21 08:42:01;;;;;;;;;40.00;36.25;;;;;;;;3727841;37;21288;-62
2021/03/21 08:44:41;;;;;;;;;36.50;32.25;;;;;;;;3724817;37;21282;-63
2021/03/21 08:47:21;;;;;;;;;37.75;36.25;;;;;;;;3724710;37;21279;-61
2021/03/21 08:49:49;;;;;;;;;32.75;29.00;;;;;;;;3724785;37;21289;-63
2021/03/21 08:52:28;;;;;;;;;36.25;32.25;;;;;;;;3724795;37;21362;-61
2021/03/21 08:54:54;;;;;;;;;30.25;26.25;;;;;;;;3724803;37;21262;-64
2021/03/21 08:57:33;;;;;;;;;33.50;29.25;;;;;;;;3724831;37;21239;-63
2021/03/21 09:00:36;;;;;;;;;40.50;35.50;;;;;;;;3724914;37;21334;-63
2021/03/21 09:03:24;;;;;;;;;31.25;27.00;;;;;;;;3724834;37;21354;-63
2021/03/21 09:05:52;;;;;;;;;33.00;28.75;;;;;;;;3724850;38;21251;-64
2021/03/21 09:08:22;;;;;;;;;38.25;33.50;;;;;;;;3724889;37;21246;-67
2021/03/21 09:10:54;;;;;;;;;37.50;28.00;;;;;;;;3724714;38;21061;-62
2021/03/21 09:13:25;;;;;;;;;35.50;30.50;;;;;;;;3724475;37;21273;-62
2021/03/21 09:16:01;;;;;;;;;31.75;25.75;;;;;;;;3724732;37;21244;-60
2021/03/21 09:18:32;;;;;;;;;35.25;30.75;;;;;;;;3724407;37;21242;-61
2021/03/21 09:21:24;;;;;;;;;36.00;29.75;;;;;;;;3724928;38;21242;-63
2021/03/21 09:23:57;;;;;;;;;35.25;31.25;;;;;;;;3724929;37;21278;-61
2021/03/21 09:26:43;;;;;;;;;41.25;36.00;;;;;;;;3724873;37;21218;-61
2021/03/21 09:29:34;;;;;;;;;35.50;27.25;;;;;;;;3725163;37;21221;-60
2021/03/21 09:32:06;;;;;;;;;32.25;30.50;;;;;;;;3725355;37;21274;-60
2021/03/21 09:34:51;;;;;;;;;37.75;32.00;;;;;;;;3724898;38;21096;-61
2021/03/21 09:37:22;;;;;;;;;34.25;29.25;;;;;;;;3725335;37;21197;-62
2021/03/21 09:39:58;;;;;;;;;30.25;26.75;;;;;;;;3725400;38;21199;-63
2021/03/21 09:42:25;;;;;;;;;36.25;30.00;;;;;;;;3724932;38;21157;-62
2021/03/21 09:44:54;;;;;;;;;33.75;29.25;;;;;;;;3724849;37;21174;-62
2021/03/21 09:47:32;;;;;;;;;29.75;26.75;;;;;;;;3727256;38;21189;-62
2021/03/21 09:50:11;;;;;;;;;36.00;27.75;;;;;;;;3726131;38;21202;-63
2021/03/21 09:52:41;;;;;;;;;35.25;28.00;;;;;;;;3724930;38;21203;-64
2021/03/21 09:55:15;;;;;;;;;30.75;23.50;;;;;;;;3725189;37;21228;-62
2021/03/21 09:58:07;;;;;;;;;26.50;23.00;;;;;;;;3725188;37;21176;-63
2021/03/21 10:00:34;;;;;;;;;23.25;21.25;;;;;;;;3726116;38;21183;-63
2021/03/21 10:03:05;;;;;;;;;29.50;27.75;;;;;;;;3726448;38;21157;-63
2021/03/21 10:05:34;;;;;;;;;32.50;27.00;;;;;;;;3725431;37;21422;-63
2021/03/21 10:08:08;;;;;;;;;32.25;28.00;;;;;;;;3732627;37;21182;-65
2021/03/21 10:10:39;;;;;;;;;26.75;23.00;;;;;;;;3725523;37;21447;-64
2021/03/21 10:13:06;;;;;;;;;25.75;23.50;;;;;;;;3731630;38;20868;-64
2021/03/21 10:15:51;;;;;;;;;30.25;28.75;;;;;;;;3729378;37;21170;-68
2021/03/21 10:18:37;;;;;;;;;24.25;23.00;;;;;;;;3725636;38;21152;-64
2021/03/21 10:21:05;;;;;;;;;22.00;19.00;;;;;;;;3725831;38;21145;-65
2021/03/21 10:24:08;;;;;;;;;23.00;20.25;;;;;;;;3725659;38;21145;-65
2021/03/21 10:26:34;;;;;;;;;28.25;25.25;;;;;;;;3725551;38;21101;-66
2021/03/21 10:29:02;;;;;;;;;25.00;21.25;;;;;;;;3725550;37;21111;-66
2021/03/21 10:31:35;;;;;;;;;22.75;21.75;;;;;;;;3729110;37;21101;-66
2021/03/21 10:34:24;;;;;;;;;27.50;25.75;;;;;;;;3734673;37;21165;-66
2021/03/21 10:36:50;;;;;;;;;28.25;27.25;;;;;;;;3729853;38;21118;-64
2021/03/21 10:39:41;;;;;;;;;29.75;27.50;;;;;;;;3727320;37;21097;-65
2021/03/21 10:42:14;;;;;;;;;34.50;32.25;;;;;;;;3736111;38;18061;-68
2021/03/21 10:45:00;;;;;;;;;39.50;29.00;;;;;;;;3734098;38;21094;-65
2021/03/21 10:47:46;;;;;;;;;34.75;31.50;;;;;;;;3733050;37;21119;-64
2021/03/21 10:50:32;;;;;;;;;25.50;24.25;;;;;;;;3728643;37;21113;-65
2021/03/21 10:53:21;;;;;;;;;19.50;17.75;;;;;;;;3725632;37;21184;-65
2021/03/21 10:56:00;;;;;;;;;21.25;19.50;;;;;;;;3725417;38;21107;-64
2021/03/21 10:58:49;;;;;;;;;27.50;24.25;;;;;;;;3725480;38;21097;-64
2021/03/21 11:01:26;;;;;;;;;29.50;26.25;;;;;;;;3725242;37;21100;-62
2021/03/21 11:04:04;;;;;;;;;27.25;24.50;;;;;;;;3724607;37;21096;-65
2021/03/21 11:06:32;;;;;;;;;27.50;25.00;;;;;;;;3725177;37;21077;-63
2021/03/21 11:09:09;;;;;;;;;26.25;26.00;;;;;;;;3724744;38;21072;-64
2021/03/21 11:11:36;;;;;;;;;28.75;26.00;;;;;;;;3725347;37;21066;-64
2021/03/21 11:14:27;;;;;;;;;27.50;24.00;;;;;;;;3725304;38;21083;-65
2021/03/21 11:17:22;;;;;;;;;23.75;22.25;;;;;;;;3724952;38;21057;-64
2021/03/21 11:19:52;;;;;;;;;31.75;26.50;;;;;;;;3725307;37;21079;-64
2021/03/21 11:22:35;;;;;;;;;28.25;22.25;;;;;;;;3725244;38;21106;-64
2021/03/21 11:25:03;;;;;;;;;23.25;20.50;;;;;;;;3724912;37;21078;-64
2021/03/21 11:27:30;;;;;;;;;27.50;24.00;;;;;;;;3725493;38;21041;-64
2021/03/21 11:30:08;;;;;;;;;23.00;21.50;;;;;;;;3725255;38;21058;-64
2021/03/21 11:32:35;;;;;;;;;24.75;22.00;;;;;;;;3724800;38;20875;-64
2021/03/21 11:35:17;;;;;;;;;20.25;19.00;;;;;;;;3725126;37;21031;-65
2021/03/21 11:37:44;;;;;;;;;24.25;22.75;;;;;;;;3725578;38;21037;-65
2021/03/21 11:40:37;;;;;;;;;26.50;21.75;;;;;;;;3725198;37;21039;-65
2021/03/21 11:43:23;;;;;;;;;21.25;20.25;;;;;;;;3725257;37;21036;-65
2021/03/21 11:46:09;;;;;;;;;19.50;18.75;;;;;;;;3725412;37;21045;-65
2021/03/21 11:48:39;;;;;;;;;23.25;21.25;;;;;;;;3725402;38;21008;-66
2021/03/21 11:51:11;;;;;;;;;27.00;21.75;;;;;;;;3724650;37;20972;-64
2021/03/21 11:53:38;;;;;;;;;19.00;18.00;;;;;;;;3724633;38;21020;-64
2021/03/21 11:56:07;;;;;;;;;24.50;20.00;;;;;;;;3725012;38;21009;-64
2021/03/21 11:58:42;;;;;;;;;24.50;20.50;;;;;;;;3724391;37;21000;-66
2021/03/21 12:01:22;;;;;;;;;21.25;21.25;;;;;;;;3724490;38;21013;-66
2021/03/21 12:04:15;;;;;;;;;26.75;25.50;;;;;;;;3725047;38;21014;-64
2021/03/21 12:06:58;;;;;;;;;20.00;18.75;;;;;;;;3724386;37;21010;-67
2021/03/21 12:09:29;;;;;;;;;18.25;16.25;;;;;;;;3724132;37;21101;-65
2021/03/21 12:11:58;;;;;;;;;20.25;18.25;;;;;;;;3724806;37;20977;-69
2021/03/21 12:14:52;;;;;;;;;19.75;17.00;;;;;;;;3724956;37;20979;-70
2021/03/21 12:17:44;;;;;;;;;18.75;17.75;;;;;;;;3724994;38;20977;-69
2021/03/21 12:20:44;;;;;;;;;20.00;17.00;;;;;;;;3725134;37;20981;-71
2021/03/21 12:23:32;;;;;;;;;19.75;18.00;;;;;;;;3724974;37;20978;-69
2021/03/21 12:26:09;;;;;;;;;32.25;26.00;;;;;;;;3724891;38;20978;-68
2021/03/21 12:28:37;;;;;;;;;21.75;19.25;;;;;;;;3725160;38;20961;-67
2021/03/21 12:31:12;;;;;;;;;20.25;19.75;;;;;;;;3725240;37;21170;-65
2021/03/21 12:33:40;;;;;;;;;20.25;18.00;;;;;;;;3725195;37;20969;-66
2021/03/21 12:36:12;;;;;;;;;20.25;18.25;;;;;;;;3725480;37;20977;-68
2021/03/21 12:38:42;;;;;;;;;19.75;18.25;;;;;;;;3725731;38;17904;-66
2021/03/21 12:41:43;;;;;;;;;19.50;17.50;;;;;;;;3728126;38;20955;-69
2021/03/21 12:44:31;;;;;;;;;19.00;16.75;;;;;;;;3729716;38;20961;-67
2021/03/21 12:47:16;;;;;;;;;21.75;20.00;;;;;;;;3728910;37;20940;-68
2021/03/21 12:49:48;;;;;;;;;21.25;19.25;;;;;;;;3727602;37;20926;-69
2021/03/21 12:52:20;;;;;;;;;19.50;18.75;;;;;;;;3731174;37;20929;-68
2021/03/21 12:54:47;;;;;;;;;21.25;18.50;;;;;;;;3726164;37;21104;-69
2021/03/21 12:57:14;;;;;;;;;20.00;17.50;;;;;;;;3725202;37;20941;-70
2021/03/21 12:59:41;;;;;;;;;17.25;17.00;;;;;;;;3724945;37;20933;-68
2021/03/21 13:02:13;;;;;;;;;18.00;18.00;;;;;;;;3725005;38;20940;-69
2021/03/21 13:04:39;;;;;;;;;21.00;16.75;;;;;;;;3725020;37;20933;-68
2021/03/21 13:07:05;;;;;;;;;17.25;17.00;;;;;;;;3724990;37;20903;-68
2021/03/21 13:09:40;;;;;;;;;20.25;18.25;;;;;;;;3726227;37;17879;-68
2021/03/21 13:12:08;;;;;;;;;23.75;21.75;;;;;;;;3725059;38;17874;-69
2021/03/21 13:14:35;;;;;;;;;17.50;16.75;;;;;;;;3724507;37;20916;-67
2021/03/21 13:17:10;;;;;;;;;12.50;11.50;;;;;;;;3724523;38;20913;-68
2021/03/21 13:19:36;;;;;;;;;16.25;15.00;;;;;;;;3724844;37;20836;-66
2021/03/21 13:22:03;;;;;;;;;16.00;15.00;;;;;;;;3725125;37;20924;-67
2021/03/21 13:24:29;;;;;;;;;18.25;16.00;;;;;;;;3725439;38;17835;-67
2021/03/21 13:26:54;;;;;;;;;22.25;18.00;;;;;;;;3725451;38;20877;-66
2021/03/21 13:29:20;;;;;;;;;14.25;13.00;;;;;;;;3725546;38;17855;-66
2021/03/21 13:31:47;;;;;;;;;22.00;19.50;;;;;;;;3725671;37;17859;-66
2021/03/21 13:34:31;;;;;;;;;15.75;14.75;;;;;;;;3725375;38;20892;-68
2021/03/21 13:36:57;;;;;;;;;15.50;14.25;;;;;;;;3725423;38;20914;-67
2021/03/21 13:39:22;;;;;;;;;19.75;17.00;;;;;;;;3725207;37;20863;-66
2021/03/21 13:41:49;;;;;;;;;14.75;13.75;;;;;;;;3725356;37;17830;-68
2021/03/21 13:44:15;;;;;;;;;15.75;14.00;;;;;;;;3725263;37;17822;-67
2021/03/21 13:46:42;;;;;;;;;21.50;20.00;;;;;;;;3724822;37;20883;-66
2021/03/21 13:49:09;;;;;;;;;14.00;14.00;;;;;;;;3724606;37;20875;-67
2021/03/21 13:51:35;;;;;;;;;14.75;13.00;;;;;;;;3725172;37;20863;-66
2021/03/21 13:54:02;;;;;;;;;19.50;17.25;;;;;;;;3725367;37;20840;-67
2021/03/21 13:56:28;;;;;;;;;20.50;16.75;;;;;;;;3725125;37;20913;-68
2021/03/21 13:58:54;;;;;;;;;24.00;19.25;;;;;;;;3725270;37;20859;-67
2021/03/21 14:01:20;;;;;;;;;17.25;15.75;;;;;;;;3725102;37;17740;-67
2021/03/21 14:03:46;;;;;;;;;17.75;15.00;;;;;;;;3725083;38;20841;-67
2021/03/21 14:06:12;;;;;;;;;15.00;13.75;;;;;;;;3725460;37;17810;-78
2021/03/21 14:08:38;;;;;;;;;19.00;16.50;;;;;;;;3725787;37;17807;-67
2021/03/21 14:11:05;;;;;;;;;24.00;21.00;;;;;;;;3725163;37;20820;-68
2021/03/21 14:13:31;;;;;;;;;16.25;14.00;;;;;;;;3724778;37;17788;-69
2021/03/21 14:15:57;;;;;;;;;21.50;17.00;;;;;;;;3725265;37;20823;-69
2021/03/21 14:18:24;;;;;;;;;18.75;16.75;;;;;;;;3725416;37;20851;-70
2021/03/21 14:20:51;;;;;;;;;20.00;18.50;;;;;;;;3727614;37;17780;-68
2021/03/21 14:23:20;;;;;;;;;18.75;16.50;;;;;;;;3732406;38;20792;-69
2021/03/21 14:25:45;;;;;;;;;21.50;18.25;;;;;;;;3731039;37;20835;-68
2021/03/21 14:28:12;;;;;;;;;16.75;16.00;;;;;;;;3725774;38;20792;-69
2021/03/21 14:30:39;;;;;;;;;18.00;14.50;;;;;;;;3734401;38;17760;-70
2021/03/21 14:33:05;;;;;;;;;20.00;16.00;;;;;;;;3735018;38;20763;-68
2021/03/21 14:35:32;;;;;;;;;16.00;15.25;;;;;;;;3731232;38;20807;-70
2021/03/21 14:37:58;;;;;;;;;18.25;15.00;;;;;;;;3725377;38;20798;-69
2021/03/21 14:40:26;;;;;;;;;23.75;17.50;;;;;;;;3726153;37;20790;-70
2021/03/21 14:42:52;;;;;;;;;19.75;18.25;;;;;;;;3725655;37;17739;-69
2021/03/21 14:45:18;;;;;;;;;16.00;13.25;;;;;;;;3725638;38;20797;-69
2021/03/21 14:47:45;;;;;;;;;16.50;14.75;;;;;;;;3728135;37;20701;-70
2021/03/21 14:50:13;;;;;;;;;21.00;19.75;;;;;;;;3727086;37;20776;-68
2021/03/21 14:52:40;;;;;;;;;20.50;18.00;;;;;;;;3732144;37;20776;-68
2021/03/21 14:55:06;;;;;;;;;17.25;14.25;;;;;;;;3731044;37;20778;-68
2021/03/21 14:57:32;;;;;;;;;23.75;19.25;;;;;;;;3726428;37;20703;-66
2021/03/21 15:00:00;;;;;;;;;22.75;19.75;;;;;;;;3725545;37;20782;-66
2021/03/21 15:02:26;;;;;;;;;17.25;16.00;;;;;;;;3725601;37;17736;-67
2021/03/21 15:04:52;;;;;;;;;20.75;19.25;;;;;;;;3727915;38;20753;-66
2021/03/21 15:07:19;;;;;;;;;18.75;17.50;;;;;;;;3732124;37;17730;-67
2021/03/21 15:09:46;;;;;;;;;23.25;19.75;;;;;;;;3728944;38;20857;-68